»·PEaware :: GTI1 KLAX-KSFO

GTI1 :: KLAX-KSFO

FLIGHT INFORMATION

Flight Status: Arrived
Operator:
Atlas Air
More flights by this operator :: More flights under this callsign
Pilot: Jordan D. (16847)
Aircraft: Unknown
(B74F)
More flights by this aircraft type
Origin: KLAX Los Angeles Intl
United States
Destination: KSFO San Francisco Intl
United States
More flights between these airports :: More routes between these airports
Route: +SUMMR1 STOKD SERFR SERFR3
File this flight plan on PilotEdge
Remarks:
Altitude:
(Current/Filed)
30,000ft
Speed:
(Current/Filed)
486kts
Departed: 25-Nov-18 04:12 PM
Arrived: 25-Nov-18 05:07 PM
Distance/Time
Traveled:
294nm/0:55
Distance/Time
To Go:
Arrived

Flight Plot

Page will automatically refresh every two minutes.

Flight plan parsing failed; only flown route is shown


Map Options




Map Legend


Flown Route
Filed Route
Departure Airport
Arrival Airport
Navaid (VOR, NDB)
Fix

Horizontal Profiles

Position Reports

Time Latitude Longitude Heading Altitude Ground
Speed
25-Nov-18 15:51 33.933254 -118.380519 134 139ft 0kts
25-Nov-18 15:52 33.933254 -118.380519 134 139ft 0kts
25-Nov-18 15:53 33.933254 -118.380519 134 139ft 0kts
25-Nov-18 15:54 33.933254 -118.380519 134 139ft 0kts
25-Nov-18 15:55 33.933254 -118.380519 134 139ft 0kts
25-Nov-18 15:56 33.933254 -118.380519 134 139ft 0kts
25-Nov-18 15:57 33.933254 -118.380519 134 139ft 0kts
25-Nov-18 15:58 33.933254 -118.380519 134 139ft 0kts
25-Nov-18 15:59 33.933304 -118.380580 132 139ft 2kts
25-Nov-18 16:00 33.933618 -118.381203 88 139ft 2kts
25-Nov-18 16:01 33.933447 -118.381418 0 139ft 0kts
25-Nov-18 16:02 33.933447 -118.381418 0 139ft 0kts
25-Nov-18 16:03 33.934128 -118.381369 0 139ft 16kts
25-Nov-18 16:04 33.935114 -118.381368 357 139ft 0kts
25-Nov-18 16:05 33.935115 -118.381368 357 139ft 0kts
25-Nov-18 16:06 33.935182 -118.381372 357 139ft 3kts
25-Nov-18 16:07 33.937061 -118.382973 352 139ft 13kts
25-Nov-18 16:08 33.938435 -118.383167 354 139ft 0kts
25-Nov-18 16:09 33.938435 -118.383167 354 139ft 0kts
25-Nov-18 16:10 33.938520 -118.383179 353 139ft 5kts
25-Nov-18 16:11 33.940667 -118.380807 108 139ft 0kts
25-Nov-18 16:12 33.940667 -118.380807 108 139ft 0kts
25-Nov-18 16:13 33.940667 -118.380807 108 139ft 0kts
25-Nov-18 16:14 33.940657 -118.380773 109 139ft 3kts
25-Nov-18 16:15 33.938769 -118.391014 262 141ft 145kts
25-Nov-18 16:16 33.931806 -118.458846 264 2056ft 242kts
25-Nov-18 16:17 33.924749 -118.544474 265 3762ft 266kts
25-Nov-18 16:18 33.917541 -118.634683 267 6085ft 276kts
25-Nov-18 16:19 33.917436 -118.729068 269 9342ft 289kts
25-Nov-18 16:20 33.916986 -118.829277 271 11888ft 304kts
25-Nov-18 16:21 33.919868 -118.928894 273 14973ft 301kts
25-Nov-18 16:22 33.931132 -119.031315 295 16785ft 339kts
25-Nov-18 16:23 33.983753 -119.135374 302 18822ft 376kts
25-Nov-18 16:24 34.056178 -119.227225 323 21532ft 387kts
25-Nov-18 16:25 34.144662 -119.302468 324 24690ft 381kts
25-Nov-18 16:26 34.231723 -119.376957 325 27057ft 387kts
25-Nov-18 16:27 34.319852 -119.453289 327 29073ft 394kts
25-Nov-18 16:28 34.410087 -119.532869 323 30079ft 421kts
25-Nov-18 16:29 34.497754 -119.638403 318 30072ft 456kts
25-Nov-18 16:30 34.586058 -119.748143 318 30070ft 454kts
25-Nov-18 16:31 34.674356 -119.857421 319 30079ft 453kts
25-Nov-18 16:32 34.762726 -119.966617 318 30081ft 452kts
25-Nov-18 16:33 34.850254 -120.075485 320 30084ft 447kts
25-Nov-18 16:34 34.937186 -120.183704 319 30097ft 446kts
25-Nov-18 16:35 35.023610 -120.292249 319 30093ft 445kts
25-Nov-18 16:36 35.110831 -120.399996 322 30098ft 441kts
25-Nov-18 16:37 35.201700 -120.500866 323 30114ft 441kts
25-Nov-18 16:38 35.292085 -120.601901 323 30096ft 441kts
25-Nov-18 16:39 35.382697 -120.704180 323 30104ft 440kts
25-Nov-18 16:40 35.472868 -120.806503 323 30109ft 442kts
25-Nov-18 16:41 35.568485 -120.897682 327 29353ft 431kts
25-Nov-18 16:42 35.670279 -120.992092 326 28282ft 481kts
25-Nov-18 16:43 35.778005 -121.092413 326 28124ft 486kts
25-Nov-18 16:44 35.880039 -121.187311 326 28132ft 447kts
25-Nov-18 16:45 35.976977 -121.278554 326 28137ft 452kts
25-Nov-18 16:46 36.077252 -121.372046 329 28139ft 437kts
25-Nov-18 16:47 36.175600 -121.448624 330 28140ft 419kts
25-Nov-18 16:48 36.275079 -121.525828 330 28008ft 419kts
25-Nov-18 16:49 36.372174 -121.602079 330 25571ft 409kts
25-Nov-18 16:50 36.466686 -121.676566 329 23879ft 383kts
25-Nov-18 16:51 36.552853 -121.744364 329 22414ft 359kts
25-Nov-18 16:52 36.636174 -121.810436 328 20475ft 351kts
25-Nov-18 16:53 36.718407 -121.875807 328 18475ft 345kts
25-Nov-18 16:54 36.807285 -121.913423 348 16631ft 335kts
25-Nov-18 16:55 36.897528 -121.937750 347 14776ft 329kts
25-Nov-18 16:56 36.985149 -121.965029 342 13041ft 321kts
25-Nov-18 16:57 37.069534 -121.998691 342 11299ft 313kts
25-Nov-18 16:58 37.149930 -122.030279 342 10203ft 283kts
25-Nov-18 16:59 37.221168 -122.058227 342 9290ft 260kts
25-Nov-18 17:00 37.283889 -122.082848 343 8275ft 222kts
25-Nov-18 17:01 37.343751 -122.106449 343 6355ft 226kts
25-Nov-18 17:02 37.403135 -122.128471 346 5464ft 219kts
25-Nov-18 17:03 37.460750 -122.148860 343 4944ft 217kts
25-Nov-18 17:04 37.512458 -122.167227 349 4009ft 166kts
25-Nov-18 17:05 37.547256 -122.198456 303 2790ft 159kts
25-Nov-18 17:06 37.567526 -122.247605 299 1937ft 156kts
25-Nov-18 17:07 37.587716 -122.295707 298 1128ft 147kts
25-Nov-18 17:08 37.606397 -122.340241 297 369ft 142kts
25-Nov-18 17:09 37.622770 -122.379067 297 26ft 68kts
25-Nov-18 17:10 37.626288 -122.384199 313 26ft 23kts
25-Nov-18 17:11 37.629246 -122.390972 297 26ft 20kts
25-Nov-18 17:12 37.633205 -122.394178 342 26ft 16kts
25-Nov-18 17:13 37.634994 -122.395167 159 26ft 0kts
25-Nov-18 17:14 37.634994 -122.395167 159 26ft 0kts
25-Nov-18 17:15 37.634994 -122.395167 159 26ft 0kts
25-Nov-18 17:16 37.634994 -122.395167 159 26ft 0kts
25-Nov-18 17:17 37.634994 -122.395167 159 26ft 0kts
25-Nov-18 17:18 37.634994 -122.395167 159 26ft 0kts
25-Nov-18 17:19 37.634994 -122.395167 159 26ft 0kts
25-Nov-18 17:20 37.634994 -122.395167 159 26ft 0kts
25-Nov-18 17:21 37.634994 -122.395167 159 26ft 0kts
25-Nov-18 17:22 37.634994 -122.395167 159 26ft 0kts
25-Nov-18 17:23 37.634994 -122.395167 159 26ft 0kts
25-Nov-18 17:24 37.634994 -122.395167 159 26ft 0kts

Navigation Log

Ident Type
Flight plan parsing failed, navigation log unavailable